createdAt,value
2022-08-20T00:00:13.094Z,0.00
2022-08-20T00:01:13.386Z,0.00
2022-08-20T00:02:13.463Z,0.00
2022-08-20T00:03:13.638Z,0.00
2022-08-20T00:04:13.646Z,0.00
2022-08-20T00:05:13.772Z,0.00
2022-08-20T00:06:13.880Z,0.00
2022-08-20T00:07:13.972Z,0.00
2022-08-20T00:08:14.185Z,0.00
2022-08-20T00:09:14.243Z,0.00
2022-08-20T00:10:14.343Z,0.00
2022-08-20T00:11:14.467Z,0.00
2022-08-20T00:12:14.531Z,0.00
2022-08-20T00:13:16.157Z,0.00
2022-08-20T00:14:14.802Z,0.00
2022-08-20T00:15:14.960Z,0.00
2022-08-20T00:16:15.131Z,0.00
2022-08-20T00:17:15.158Z,0.00
2022-08-20T00:18:15.430Z,0.00
2022-08-20T00:19:15.460Z,0.00
2022-08-20T00:20:15.590Z,0.00
2022-08-20T00:21:19.050Z,0.00
2022-08-20T00:22:15.827Z,0.00
2022-08-20T00:23:16.078Z,0.00
2022-08-20T00:24:16.181Z,0.00
2022-08-20T00:25:16.159Z,0.00
2022-08-20T00:26:16.308Z,0.00
2022-08-20T00:27:16.439Z,0.00
2022-08-20T00:28:16.729Z,0.00
2022-08-20T00:29:16.728Z,0.00
2022-08-20T00:30:16.800Z,0.00
2022-08-20T00:31:16.949Z,0.00
2022-08-20T00:32:17.098Z,0.00
2022-08-20T00:33:17.509Z,0.00
2022-08-20T00:34:17.380Z,0.00
2022-08-20T00:35:17.528Z,0.00
2022-08-20T00:36:17.664Z,0.00
2022-08-20T00:37:17.737Z,0.00
2022-08-20T00:38:17.935Z,0.00
2022-08-20T00:39:18.098Z,0.00
2022-08-20T00:40:22.195Z,0.00
2022-08-20T00:41:18.247Z,0.00
2022-08-20T00:42:18.387Z,0.00
2022-08-20T00:43:18.638Z,0.00
2022-08-20T00:44:18.681Z,0.00
2022-08-20T00:45:18.832Z,0.00
2022-08-20T00:46:18.906Z,0.00
2022-08-20T00:47:19.056Z,0.00
2022-08-20T00:48:19.156Z,0.00
2022-08-20T00:49:19.269Z,0.00
2022-08-20T00:50:19.356Z,0.00
2022-08-20T00:51:19.453Z,0.00
2022-08-20T00:52:19.585Z,0.00
2022-08-20T00:53:19.838Z,0.00
2022-08-20T00:54:19.965Z,0.00
2022-08-20T00:55:19.961Z,0.00
2022-08-20T00:56:20.186Z,0.00
2022-08-20T00:57:20.185Z,0.00
2022-08-20T00:58:20.474Z,0.00
2022-08-20T00:59:20.454Z,0.00
2022-08-20T01:00:20.606Z,0.00
2022-08-20T01:01:20.715Z,0.00
2022-08-20T01:02:20.863Z,0.00
2022-08-20T01:03:21.036Z,0.00
2022-08-20T01:04:21.253Z,0.00
2022-08-20T01:05:21.272Z,0.00
2022-08-20T01:06:22.392Z,0.00
2022-08-20T01:07:21.661Z,0.00
2022-08-20T01:08:21.641Z,0.00
2022-08-20T01:09:50.369Z,0.00
2022-08-20T01:10:22.861Z,0.00
2022-08-20T01:11:21.991Z,0.00
2022-08-20T01:12:22.142Z,0.00
2022-08-20T01:13:22.282Z,0.00
2022-08-20T01:14:22.681Z,0.00
2022-08-20T01:15:22.513Z,0.00
2022-08-20T01:16:24.243Z,0.00
2022-08-20T01:17:22.762Z,0.00
2022-08-20T01:18:22.919Z,0.00
2022-08-20T01:19:29.587Z,0.00
2022-08-20T01:20:24.224Z,0.00
2022-08-20T01:21:23.260Z,0.00
2022-08-20T01:22:23.361Z,0.00
2022-08-20T01:23:23.450Z,0.00
2022-08-20T01:24:23.590Z,0.00
2022-08-20T01:25:23.964Z,0.00
2022-08-20T01:26:23.829Z,0.00
2022-08-20T01:27:23.920Z,0.00
2022-08-20T01:28:24.049Z,0.00
2022-08-20T01:29:24.217Z,0.00
2022-08-20T01:30:24.369Z,0.00
2022-08-20T01:31:24.420Z,0.00
2022-08-20T01:32:24.558Z,0.00
2022-08-20T01:33:24.721Z,0.00
2022-08-20T01:34:24.812Z,0.00
2022-08-20T01:35:24.958Z,0.00
2022-08-20T01:36:25.231Z,0.00
2022-08-20T01:37:25.098Z,0.00
2022-08-20T01:38:26.200Z,0.00
2022-08-20T01:39:25.339Z,0.00
2022-08-20T01:40:25.547Z,0.00
2022-08-20T01:41:28.577Z,0.00
2022-08-20T01:42:25.668Z,0.00
2022-08-20T01:43:25.817Z,0.00
2022-08-20T01:44:25.925Z,0.00
2022-08-20T01:45:26.874Z,0.00
2022-08-20T01:46:26.341Z,0.00
2022-08-20T01:47:26.315Z,0.00
2022-08-20T01:48:26.457Z,0.00
2022-08-20T01:49:26.606Z,0.00
2022-08-20T01:50:26.770Z,0.00
2022-08-20T01:51:26.956Z,0.00
2022-08-20T01:52:27.008Z,0.00
2022-08-20T01:53:27.115Z,0.00
2022-08-20T01:54:27.275Z,0.00
2022-08-20T01:55:27.395Z,0.00
2022-08-20T01:56:27.665Z,0.00
2022-08-20T01:57:27.597Z,0.00
2022-08-20T01:58:27.743Z,0.00
2022-08-20T01:59:27.875Z,0.00
2022-08-20T02:00:28.054Z,0.00
2022-08-20T02:01:28.234Z,0.00
2022-08-20T02:02:28.334Z,0.00
2022-08-20T02:03:28.375Z,0.00
2022-08-20T02:04:28.515Z,0.00
2022-08-20T02:05:30.581Z,0.00
2022-08-20T02:06:28.824Z,0.00
2022-08-20T02:07:28.977Z,0.00
2022-08-20T02:08:29.067Z,0.00
2022-08-20T02:09:29.174Z,0.00
2022-08-20T02:10:31.564Z,0.00
2022-08-20T02:11:29.503Z,0.00
2022-08-20T02:12:29.544Z,0.00
2022-08-20T02:13:29.634Z,0.00
2022-08-20T02:14:29.774Z,0.00
2022-08-20T02:15:35.202Z,0.00
2022-08-20T02:16:31.205Z,0.00
2022-08-20T02:17:30.221Z,0.00
2022-08-20T02:18:30.251Z,0.00
2022-08-20T02:19:30.372Z,0.00
2022-08-20T02:20:30.471Z,0.00
2022-08-20T02:21:30.601Z,0.00
2022-08-20T02:22:30.972Z,0.00
2022-08-20T02:23:30.841Z,0.00
2022-08-20T02:24:30.992Z,0.00
2022-08-20T02:25:31.150Z,0.00
2022-08-20T02:26:31.251Z,0.00
2022-08-20T02:27:31.514Z,0.00
2022-08-20T02:28:31.484Z,0.00
2022-08-20T02:29:31.640Z,0.00
2022-08-20T02:30:31.778Z,0.00
2022-08-20T02:31:34.919Z,0.00
2022-08-20T02:32:34.105Z,0.00
2022-08-20T02:33:32.210Z,0.00
2022-08-20T02:34:32.259Z,0.00
2022-08-20T02:35:32.421Z,0.00
2022-08-20T02:36:32.585Z,0.00
2022-08-20T02:37:32.894Z,0.00
2022-08-20T02:38:32.769Z,0.00
2022-08-20T02:39:33.027Z,0.00
2022-08-20T02:40:33.088Z,0.00
2022-08-20T02:41:33.187Z,0.00
2022-08-20T02:42:33.423Z,0.00
2022-08-20T02:43:33.412Z,0.00
2022-08-20T02:44:33.546Z,0.00
2022-08-20T02:45:33.705Z,0.00
2022-08-20T02:46:33.798Z,0.00
2022-08-20T02:47:34.148Z,0.00
2022-08-20T02:48:34.099Z,0.00
2022-08-20T02:49:34.079Z,0.00
2022-08-20T02:50:34.225Z,0.00
2022-08-20T02:51:34.357Z,0.00
2022-08-20T02:52:34.529Z,0.00
2022-08-20T02:53:34.636Z,0.00
2022-08-20T02:54:34.744Z,0.00
2022-08-20T02:55:34.846Z,0.00
2022-08-20T02:56:35.014Z,0.00
2022-08-20T02:57:35.195Z,0.00
2022-08-20T02:58:35.203Z,0.00
2022-08-20T02:59:35.296Z,0.00
2022-08-20T03:00:38.292Z,0.00
2022-08-20T03:01:35.668Z,0.00
2022-08-20T03:02:35.635Z,0.00
2022-08-20T03:03:35.824Z,0.00
2022-08-20T03:04:35.866Z,0.00
2022-08-20T03:05:36.035Z,0.00
2022-08-20T03:06:36.253Z,0.00
2022-08-20T03:07:36.254Z,0.00
2022-08-20T03:08:36.533Z,0.00
2022-08-20T03:09:36.474Z,0.00
2022-08-20T03:10:36.564Z,0.00
2022-08-20T03:11:36.714Z,0.00
2022-08-20T03:12:36.804Z,0.00
2022-08-20T03:13:37.093Z,0.00
2022-08-20T03:14:37.083Z,0.00
2022-08-20T03:15:37.246Z,0.00
2022-08-20T03:16:37.441Z,0.00
2022-08-20T03:17:37.503Z,0.00
2022-08-20T03:18:37.752Z,0.00
2022-08-20T03:19:37.867Z,0.00
2022-08-20T03:20:37.853Z,0.00
2022-08-20T03:21:37.992Z,0.00
2022-08-20T03:22:38.087Z,0.00
2022-08-20T03:23:38.313Z,0.00
2022-08-20T03:24:38.389Z,0.00
2022-08-20T03:25:38.441Z,0.00
2022-08-20T03:26:38.591Z,0.00
2022-08-20T03:27:38.681Z,0.00
2022-08-20T03:28:38.881Z,0.00
2022-08-20T03:29:38.930Z,0.00
2022-08-20T03:30:39.031Z,0.00
2022-08-20T03:31:39.162Z,0.00
2022-08-20T03:32:39.310Z,0.00
2022-08-20T03:33:39.519Z,0.00
2022-08-20T03:34:40.568Z,0.00
2022-08-20T03:35:39.709Z,0.00
2022-08-20T03:36:39.849Z,0.00
2022-08-20T03:37:39.949Z,0.00
2022-08-20T03:38:41.130Z,0.00
2022-08-20T03:39:40.358Z,0.00
2022-08-20T03:40:40.310Z,0.00
2022-08-20T03:41:40.438Z,0.00
2022-08-20T03:42:40.560Z,0.00
2022-08-20T03:43:40.661Z,0.00
2022-08-20T03:44:41.037Z,0.00
2022-08-20T03:45:40.939Z,0.00
2022-08-20T03:46:41.057Z,0.00
2022-08-20T03:47:41.157Z,0.00
2022-08-20T03:48:41.332Z,0.00
2022-08-20T03:49:41.568Z,0.00
2022-08-20T03:50:41.581Z,0.00
2022-08-20T03:51:56.346Z,0.00
2022-08-20T03:52:42.799Z,0.00
2022-08-20T03:53:41.915Z,0.00
2022-08-20T03:54:42.155Z,0.00
2022-08-20T03:55:42.206Z,0.00
2022-08-20T03:56:42.707Z,0.00
2022-08-20T03:57:42.434Z,0.00
2022-08-20T03:58:42.517Z,0.00
2022-08-20T03:59:42.692Z,0.00
2022-08-20T04:00:42.816Z,0.00
2022-08-20T04:01:44.949Z,0.00
2022-08-20T04:02:43.245Z,0.00
2022-08-20T04:03:43.166Z,0.00
2022-08-20T04:04:43.313Z,0.00
2022-08-20T04:05:43.471Z,4.00
2022-08-20T04:06:43.659Z,4.00
2022-08-20T04:07:43.705Z,4.00
2022-08-20T04:08:43.822Z,0.00
2022-08-20T04:09:44.038Z,0.00
2022-08-20T04:10:44.025Z,4.00
2022-08-20T04:11:44.253Z,4.00
2022-08-20T04:12:52.744Z,4.00
2022-08-20T04:13:45.424Z,4.00
2022-08-20T04:14:44.563Z,8.00
2022-08-20T04:15:44.675Z,12.00
2022-08-20T04:16:45.021Z,12.00
2022-08-20T04:17:44.884Z,16.00
2022-08-20T04:19:02.090Z,20.00
2022-08-20T04:19:46.149Z,24.00
2022-08-20T04:20:45.274Z,28.00
2022-08-20T04:21:45.474Z,36.00
2022-08-20T04:22:58.478Z,44.00
2022-08-20T04:23:46.654Z,52.00
2022-08-20T04:24:45.752Z,56.00
2022-08-20T04:25:45.852Z,64.00
2022-08-20T04:26:46.010Z,88.00
2022-08-20T04:27:46.104Z,84.00
2022-08-20T04:28:46.201Z,92.00
2022-08-20T04:29:46.311Z,92.00
2022-08-20T04:30:48.119Z,96.00
2022-08-20T04:31:47.671Z,96.00
2022-08-20T04:32:46.635Z,92.00
2022-08-20T04:33:46.770Z,116.00
2022-08-20T04:34:47.353Z,132.00
2022-08-20T04:35:47.030Z,156.00
2022-08-20T04:36:47.211Z,160.00
2022-08-20T04:37:47.375Z,152.00
2022-08-20T04:38:50.662Z,156.00
2022-08-20T04:39:47.801Z,168.00
2022-08-20T04:40:47.677Z,192.00
2022-08-20T04:41:47.779Z,216.00
2022-08-20T04:42:47.919Z,236.00
2022-08-20T04:43:49.039Z,256.00
2022-08-20T04:44:48.240Z,264.00
2022-08-20T04:45:48.400Z,296.00
2022-08-20T04:46:48.379Z,312.00
2022-08-20T04:47:48.528Z,328.00
2022-08-20T04:48:50.336Z,364.00
2022-08-20T04:49:48.870Z,404.00
2022-08-20T04:50:48.867Z,412.00
2022-08-20T04:51:48.989Z,420.00
2022-08-20T04:52:49.089Z,440.00
2022-08-20T04:53:51.994Z,440.00
2022-08-20T04:54:49.345Z,452.00
2022-08-20T04:55:49.435Z,456.00
2022-08-20T04:56:49.626Z,480.00
2022-08-20T04:57:49.722Z,512.00
2022-08-20T04:58:49.977Z,520.00
2022-08-20T04:59:49.917Z,528.00
2022-08-20T05:00:50.054Z,560.00
2022-08-20T05:01:50.130Z,572.00
2022-08-20T05:02:50.215Z,616.00
2022-08-20T05:03:50.525Z,620.00
2022-08-20T05:04:50.474Z,628.00
2022-08-20T05:05:50.615Z,636.00
2022-08-20T05:06:50.785Z,648.00
2022-08-20T05:07:50.928Z,684.00
2022-08-20T05:08:51.163Z,684.00
2022-08-20T05:09:51.204Z,752.00
2022-08-20T05:10:51.255Z,772.00
2022-08-20T05:11:52.374Z,816.00
2022-08-20T05:12:56.693Z,852.00
2022-08-20T05:13:52.834Z,960.00
2022-08-20T05:14:51.704Z,1048.00
2022-08-20T05:15:51.852Z,1116.00
2022-08-20T05:16:52.043Z,1096.00
2022-08-20T05:17:52.176Z,1448.00
2022-08-20T05:18:52.730Z,1524.00
2022-08-20T05:19:52.451Z,1816.00
2022-08-20T05:20:52.523Z,1824.00
2022-08-20T05:21:52.622Z,2020.00
2022-08-20T05:22:52.702Z,1920.00
2022-08-20T05:23:52.980Z,1528.00
2022-08-20T05:24:53.133Z,1280.00
2022-08-20T05:25:53.143Z,1224.00
2022-08-20T05:26:53.191Z,1260.00
2022-08-20T05:27:53.297Z,1160.00
2022-08-20T05:28:58.080Z,1188.00
2022-08-20T05:29:54.517Z,1180.00
2022-08-20T05:30:53.650Z,1232.00
2022-08-20T05:31:53.761Z,1232.00
2022-08-20T05:32:53.861Z,1140.00
2022-08-20T05:33:54.060Z,1116.00
2022-08-20T05:34:54.115Z,1140.00
2022-08-20T05:35:54.258Z,1196.00
2022-08-20T05:36:56.930Z,1260.00
2022-08-20T05:37:54.568Z,1288.00
2022-08-20T05:38:54.663Z,1400.00
2022-08-20T05:39:54.939Z,1404.00
2022-08-20T05:40:54.869Z,1604.00
2022-08-20T05:41:55.018Z,1724.00
2022-08-20T05:42:55.109Z,1544.00
2022-08-20T05:43:55.209Z,1492.00
2022-08-20T05:44:55.589Z,1508.00
2022-08-20T05:45:56.782Z,1416.00
2022-08-20T05:46:55.599Z,1508.00
2022-08-20T05:47:56.608Z,1580.00
2022-08-20T05:48:55.827Z,1632.00
2022-08-20T05:49:55.968Z,1644.00
2022-08-20T05:50:56.160Z,1528.00
2022-08-20T05:51:56.175Z,1580.00
2022-08-20T05:52:56.306Z,1588.00
2022-08-20T05:53:57.438Z,1736.00
2022-08-20T05:54:56.663Z,1764.00
2022-08-20T05:55:56.721Z,1948.00
2022-08-20T05:56:56.888Z,2004.00
2022-08-20T05:57:57.023Z,1968.00
2022-08-20T05:58:57.076Z,1844.00
2022-08-20T05:59:57.366Z,1768.00
2022-08-20T06:00:57.381Z,1784.00
2022-08-20T06:01:57.446Z,1804.00
2022-08-20T06:02:57.605Z,1884.00
2022-08-20T06:03:57.778Z,2036.00
2022-08-20T06:04:57.924Z,2328.00
2022-08-20T06:05:57.966Z,2456.00
2022-08-20T06:06:58.089Z,2492.00
2022-08-20T06:07:58.316Z,2500.00
2022-08-20T06:08:59.414Z,2484.00
2022-08-20T06:09:58.513Z,2356.00
2022-08-20T06:10:58.563Z,2248.00
2022-08-20T06:11:59.160Z,2252.00
2022-08-20T06:12:58.839Z,2624.00
2022-08-20T06:13:58.923Z,2828.00
2022-08-20T06:14:59.052Z,3056.00
2022-08-20T06:15:59.265Z,3252.00
2022-08-20T06:16:59.272Z,3048.00
2022-08-20T06:17:59.565Z,2940.00
2022-08-20T06:18:59.956Z,2848.00
2022-08-20T06:19:59.773Z,2740.00
2022-08-20T06:20:59.704Z,3116.00
2022-08-20T06:21:59.890Z,3072.00
2022-08-20T06:23:00.030Z,2916.00
2022-08-20T06:24:02.269Z,3392.00
2022-08-20T06:25:00.362Z,3720.00
2022-08-20T06:26:00.401Z,3988.00
2022-08-20T06:27:00.700Z,4100.00
2022-08-20T06:28:00.691Z,3864.00
2022-08-20T06:29:00.843Z,4800.00
2022-08-20T06:30:01.067Z,5068.00
2022-08-20T06:31:01.060Z,3832.00
2022-08-20T06:32:01.319Z,3384.00
2022-08-20T06:33:01.352Z,3060.00
2022-08-20T06:34:01.438Z,3520.00
2022-08-20T06:35:01.566Z,4112.00
2022-08-20T06:36:01.659Z,4852.00
2022-08-20T06:37:02.071Z,4716.00
2022-08-20T06:38:01.919Z,3876.00
2022-08-20T06:39:02.038Z,3652.00
2022-08-20T06:40:02.174Z,4564.00
2022-08-20T06:41:02.280Z,6216.00
2022-08-20T06:42:02.570Z,6044.00
2022-08-20T06:43:02.509Z,5288.00
2022-08-20T06:44:02.655Z,4556.00
2022-08-20T06:45:02.782Z,4000.00
2022-08-20T06:46:02.905Z,3720.00
2022-08-20T06:47:03.169Z,3676.00
2022-08-20T06:48:03.279Z,3488.00
2022-08-20T06:49:03.217Z,3272.00
2022-08-20T06:50:03.330Z,3512.00
2022-08-20T06:51:03.458Z,4348.00
2022-08-20T06:52:03.686Z,4968.00
2022-08-20T06:53:04.722Z,5560.00
2022-08-20T06:54:03.825Z,5952.00
2022-08-20T06:55:03.995Z,5100.00
2022-08-20T06:56:04.110Z,4556.00
2022-08-20T06:57:04.375Z,4112.00
2022-08-20T06:58:04.528Z,4572.00
2022-08-20T06:59:04.696Z,4744.00
2022-08-20T07:00:04.575Z,4548.00
2022-08-20T07:01:09.559Z,4036.00
2022-08-20T07:02:05.892Z,3684.00
2022-08-20T07:03:04.997Z,3860.00
2022-08-20T07:04:05.062Z,4044.00
2022-08-20T07:05:05.155Z,3592.00
2022-08-20T07:06:05.303Z,3660.00
2022-08-20T07:07:05.423Z,3700.00
2022-08-20T07:08:05.613Z,3784.00
2022-08-20T07:09:05.673Z,3996.00
2022-08-20T07:10:05.913Z,4676.00
2022-08-20T07:11:06.144Z,4024.00
2022-08-20T07:12:06.074Z,3604.00
2022-08-20T07:13:06.182Z,3856.00
2022-08-20T07:14:06.285Z,4144.00
2022-08-20T07:15:06.402Z,3804.00
2022-08-20T07:16:06.743Z,3568.00
2022-08-20T07:17:06.642Z,3544.00
2022-08-20T07:18:07.772Z,3500.00
2022-08-20T07:19:06.933Z,3736.00
2022-08-20T07:20:07.006Z,3896.00
2022-08-20T07:21:07.271Z,4496.00
2022-08-20T07:22:07.421Z,4980.00
2022-08-20T07:23:07.350Z,6344.00
2022-08-20T07:24:07.500Z,6924.00
2022-08-20T07:25:07.611Z,5368.00
2022-08-20T07:26:07.931Z,3356.00
2022-08-20T07:27:07.889Z,3048.00
2022-08-20T07:28:08.106Z,3816.00
2022-08-20T07:29:08.151Z,4600.00
2022-08-20T07:30:12.742Z,4424.00
2022-08-20T07:31:13.181Z,4568.00
2022-08-20T07:32:09.728Z,5000.00
2022-08-20T07:33:08.709Z,4768.00
2022-08-20T07:34:08.730Z,4760.00
2022-08-20T07:35:08.867Z,5580.00
2022-08-20T07:36:09.043Z,5616.00
2022-08-20T07:37:09.398Z,5896.00
2022-08-20T07:38:09.258Z,5980.00
2022-08-20T07:39:09.448Z,6616.00
2022-08-20T07:40:09.565Z,6872.00
2022-08-20T07:41:09.610Z,7208.00
2022-08-20T07:42:09.908Z,6844.00
2022-08-20T07:43:09.868Z,6868.00
2022-08-20T07:44:09.975Z,6616.00
2022-08-20T07:45:10.067Z,6232.00
2022-08-20T07:46:10.211Z,6192.00
2022-08-20T07:47:10.526Z,6396.00
2022-08-20T07:48:10.407Z,9104.00
2022-08-20T07:49:10.566Z,9192.00
2022-08-20T07:50:10.687Z,9148.00
2022-08-20T07:51:10.822Z,10272.00
2022-08-20T07:52:10.988Z,10116.00
2022-08-20T07:53:11.388Z,9092.00
2022-08-20T07:54:11.156Z,7996.00
2022-08-20T07:55:11.238Z,7928.00
2022-08-20T07:56:11.525Z,9128.00
2022-08-20T07:57:11.448Z,8980.00
2022-08-20T07:58:11.717Z,9196.00
2022-08-20T07:59:11.716Z,9108.00
2022-08-20T08:00:11.816Z,9052.00
2022-08-20T08:01:11.996Z,9128.00
2022-08-20T08:02:12.032Z,9136.00
2022-08-20T08:03:12.255Z,7640.00
2022-08-20T08:04:12.454Z,7180.00
2022-08-20T08:05:12.403Z,7160.00
2022-08-20T08:06:12.525Z,7828.00
2022-08-20T08:07:12.664Z,9336.00
2022-08-20T08:08:12.752Z,10244.00
2022-08-20T08:09:12.973Z,9900.00
2022-08-20T08:10:13.056Z,9024.00
2022-08-20T08:11:13.161Z,9016.00
2022-08-20T08:12:13.262Z,8908.00
2022-08-20T08:13:13.362Z,7788.00
2022-08-20T08:14:13.582Z,7836.00
2022-08-20T08:15:13.633Z,7696.00
2022-08-20T08:16:13.742Z,7148.00
2022-08-20T08:17:13.850Z,6676.00
2022-08-20T08:18:13.989Z,6452.00
2022-08-20T08:19:14.222Z,6868.00
2022-08-20T08:20:14.344Z,7048.00
2022-08-20T08:21:14.341Z,6916.00
2022-08-20T08:22:14.430Z,7844.00
2022-08-20T08:23:24.629Z,9024.00
2022-08-20T08:24:20.514Z,9484.00
2022-08-20T08:25:15.872Z,9148.00
2022-08-20T08:26:17.820Z,7812.00
2022-08-20T08:27:15.012Z,7908.00
2022-08-20T08:28:15.100Z,8156.00
2022-08-20T08:29:15.266Z,9596.00
2022-08-20T08:30:15.350Z,9704.00
2022-08-20T08:31:15.649Z,9540.00
2022-08-20T08:32:15.610Z,9056.00
2022-08-20T08:33:15.720Z,8820.00
2022-08-20T08:34:15.831Z,8152.00
2022-08-20T08:35:15.951Z,9604.00
2022-08-20T08:36:16.104Z,9636.00
2022-08-20T08:37:16.363Z,10020.00
2022-08-20T08:38:16.288Z,10960.00
2022-08-20T08:39:16.458Z,14684.00
2022-08-20T08:40:16.635Z,13884.00
2022-08-20T08:41:16.840Z,15440.00
2022-08-20T08:42:16.827Z,14996.00
2022-08-20T08:43:17.318Z,14824.00
2022-08-20T08:44:17.098Z,14004.00
2022-08-20T08:45:17.228Z,15112.00
2022-08-20T08:46:17.448Z,13164.00
2022-08-20T08:47:17.496Z,13272.00
2022-08-20T08:48:18.703Z,15924.00
2022-08-20T08:49:17.745Z,11680.00
2022-08-20T08:50:24.883Z,10928.00
2022-08-20T08:51:18.996Z,14588.00
2022-08-20T08:52:18.338Z,10420.00
2022-08-20T08:53:18.196Z,9132.00
2022-08-20T08:54:18.335Z,6340.00
2022-08-20T08:55:18.493Z,6380.00
2022-08-20T08:56:18.635Z,7056.00
2022-08-20T08:57:18.685Z,9588.00
2022-08-20T08:58:18.794Z,10720.00
2022-08-20T08:59:18.889Z,10412.00
2022-08-20T09:00:19.037Z,10328.00
2022-08-20T09:01:55.063Z,9512.00
2022-08-20T09:02:20.439Z,9080.00
2022-08-20T09:03:19.403Z,8808.00
2022-08-20T09:04:21.705Z,9072.00
2022-08-20T09:05:19.695Z,8896.00
2022-08-20T09:06:19.922Z,8656.00
2022-08-20T09:07:19.909Z,9116.00
2022-08-20T09:08:20.016Z,11636.00
2022-08-20T09:09:20.104Z,13616.00
2022-08-20T09:10:23.189Z,15412.00
2022-08-20T09:11:20.443Z,15456.00
2022-08-20T09:12:20.456Z,18400.00
2022-08-20T09:13:20.544Z,18592.00
2022-08-20T09:14:20.683Z,18944.00
2022-08-20T09:15:20.799Z,19584.00
2022-08-20T09:16:21.056Z,19776.00
2022-08-20T09:17:21.063Z,20864.00
2022-08-20T09:18:21.181Z,14400.00
2022-08-20T09:19:21.313Z,13396.00
2022-08-20T09:20:23.054Z,13628.00
2022-08-20T09:21:22.640Z,14668.00
2022-08-20T09:22:21.676Z,14340.00
2022-08-20T09:23:21.765Z,12228.00
2022-08-20T09:24:21.907Z,14120.00
2022-08-20T09:25:22.063Z,12284.00
2022-08-20T09:26:22.183Z,11960.00
2022-08-20T09:27:23.380Z,14028.00
2022-08-20T09:28:22.422Z,13680.00
2022-08-20T09:29:22.521Z,12116.00
2022-08-20T09:30:22.622Z,13588.00
2022-08-20T09:31:22.771Z,16320.00
2022-08-20T09:32:22.938Z,15552.00
2022-08-20T09:33:23.015Z,14492.00
2022-08-20T09:34:24.712Z,16096.00
2022-08-20T09:35:23.243Z,17056.00
2022-08-20T09:36:29.211Z,15392.00
2022-08-20T09:37:24.711Z,19872.00
2022-08-20T09:38:23.640Z,15008.00
2022-08-20T09:39:23.740Z,15680.00
2022-08-20T09:40:23.959Z,19904.00
2022-08-20T09:41:24.034Z,16640.00
2022-08-20T09:42:24.203Z,14560.00
2022-08-20T09:43:24.349Z,14268.00
2022-08-20T09:44:24.429Z,13412.00
2022-08-20T09:45:24.583Z,15380.00
2022-08-20T09:46:27.288Z,13948.00
2022-08-20T09:47:24.778Z,18752.00
2022-08-20T09:48:29.618Z,17760.00
2022-08-20T09:49:26.018Z,22560.00
2022-08-20T09:50:25.110Z,20768.00
2022-08-20T09:51:25.200Z,23552.00
2022-08-20T09:52:25.348Z,18336.00
2022-08-20T09:53:25.529Z,15024.00
2022-08-20T09:54:25.569Z,15284.00
2022-08-20T09:55:25.694Z,23488.00
2022-08-20T09:56:25.789Z,22400.00
2022-08-20T09:57:25.933Z,30208.00
2022-08-20T09:58:26.229Z,25792.00
2022-08-20T09:59:26.359Z,25120.00
2022-08-20T10:00:26.348Z,35680.00
2022-08-20T10:01:26.526Z,51104.00
2022-08-20T10:02:26.597Z,90016.00
2022-08-20T10:03:26.718Z,34336.00
2022-08-20T10:04:26.867Z,96640.00
2022-08-20T10:05:26.986Z,45984.00
2022-08-20T10:06:27.109Z,83072.00
2022-08-20T10:07:27.195Z,27552.00
2022-08-20T10:08:27.476Z,77216.00
2022-08-20T10:09:27.457Z,22048.00
2022-08-20T10:10:27.616Z,76512.00
2022-08-20T10:11:27.758Z,85888.00
2022-08-20T10:12:27.897Z,92896.00
2022-08-20T10:13:28.077Z,25056.00
2022-08-20T10:14:28.443Z,22528.00
2022-08-20T10:15:28.245Z,96096.00
2022-08-20T10:16:28.415Z,18752.00
2022-08-20T10:17:28.527Z,15136.00
2022-08-20T10:18:28.720Z,24192.00
2022-08-20T10:19:28.760Z,12892.00
2022-08-20T10:20:28.866Z,9844.00
2022-08-20T10:21:29.006Z,98432.00
2022-08-20T10:22:29.141Z,16160.00
2022-08-20T10:23:29.335Z,21952.00
2022-08-20T10:24:29.326Z,52096.00
2022-08-20T10:25:29.436Z,12724.00
2022-08-20T10:26:29.561Z,11876.00
2022-08-20T10:27:29.656Z,14532.00
2022-08-20T10:28:29.914Z,50720.00
2022-08-20T10:29:30.005Z,38656.00
2022-08-20T10:30:29.995Z,41888.00
2022-08-20T10:31:30.103Z,20928.00
2022-08-20T10:32:30.205Z,20512.00
2022-08-20T10:33:30.295Z,14932.00
2022-08-20T10:34:31.086Z,15328.00
2022-08-20T10:35:30.534Z,63520.00
2022-08-20T10:36:30.694Z,61440.00
2022-08-20T10:37:30.792Z,58656.00
2022-08-20T10:38:30.905Z,65120.00
2022-08-20T10:39:31.540Z,60448.00
2022-08-20T10:40:31.135Z,65376.00
2022-08-20T10:41:31.292Z,70848.00
2022-08-20T10:42:31.392Z,53632.00
2022-08-20T10:43:31.502Z,63776.00
2022-08-20T10:44:31.724Z,72896.00
2022-08-20T10:45:31.724Z,71040.00
2022-08-20T10:46:31.825Z,43680.00
2022-08-20T10:47:31.926Z,68064.00
2022-08-20T10:48:32.064Z,33088.00
2022-08-20T10:49:32.303Z,50304.00
2022-08-20T10:50:32.293Z,14432.00
2022-08-20T10:51:33.088Z,24128.00
2022-08-20T10:52:32.526Z,20384.00
2022-08-20T10:53:32.634Z,18368.00
2022-08-20T10:54:32.894Z,26400.00
2022-08-20T10:55:32.874Z,58752.00
2022-08-20T10:56:33.024Z,64928.00
2022-08-20T10:57:33.183Z,56352.00
2022-08-20T10:58:39.322Z,55616.00
2022-08-20T10:59:34.544Z,56640.00
2022-08-20T11:00:33.532Z,56256.00
2022-08-20T11:01:36.669Z,56352.00
2022-08-20T11:02:33.746Z,56480.00
2022-08-20T11:03:33.863Z,56480.00
2022-08-20T11:04:34.013Z,55168.00
2022-08-20T11:05:34.261Z,54496.00
2022-08-20T11:06:34.274Z,54624.00
2022-08-20T11:07:55.271Z,54688.00
2022-08-20T11:08:36.076Z,55200.00
2022-08-20T11:09:34.873Z,54400.00
2022-08-20T11:10:34.772Z,20288.00
2022-08-20T11:11:34.883Z,56544.00
2022-08-20T11:12:34.984Z,55424.00
2022-08-20T11:13:35.115Z,54944.00
2022-08-20T11:14:35.352Z,57632.00
2022-08-20T11:15:35.342Z,57696.00
2022-08-20T11:16:35.512Z,55744.00
2022-08-20T11:17:37.138Z,55616.00
2022-08-20T11:18:35.746Z,48000.00
2022-08-20T11:19:35.972Z,43040.00
2022-08-20T11:20:36.031Z,43680.00
2022-08-20T11:21:36.200Z,58400.00
2022-08-20T11:22:36.262Z,56896.00
2022-08-20T11:23:36.413Z,57216.00
2022-08-20T11:24:37.180Z,56512.00
2022-08-20T11:25:36.682Z,55136.00
2022-08-20T11:26:36.862Z,55360.00
2022-08-20T11:27:36.950Z,54176.00
2022-08-20T11:28:37.099Z,53824.00
2022-08-20T11:29:37.470Z,50720.00
2022-08-20T11:30:37.411Z,51776.00
2022-08-20T11:31:37.520Z,51712.00
2022-08-20T11:32:37.632Z,50464.00
2022-08-20T11:33:37.740Z,49984.00
2022-08-20T11:34:37.954Z,51552.00
2022-08-20T11:35:48.696Z,51168.00
2022-08-20T11:36:39.067Z,51840.00
2022-08-20T11:37:38.221Z,53088.00
2022-08-20T11:38:38.308Z,50816.00
2022-08-20T11:39:41.707Z,48832.00
2022-08-20T11:40:38.601Z,50240.00
2022-08-20T11:41:38.701Z,50688.00
2022-08-20T11:42:53.229Z,50208.00
2022-08-20T11:43:39.929Z,50624.00
2022-08-20T11:44:39.157Z,51744.00
2022-08-20T11:45:39.219Z,52672.00
2022-08-20T11:46:39.469Z,54048.00
2022-08-20T11:47:39.457Z,53472.00
2022-08-20T11:48:39.604Z,57216.00
2022-08-20T11:49:39.759Z,85664.00
2022-08-20T11:50:39.859Z,67520.00
2022-08-20T11:51:49.830Z,59392.00
2022-08-20T11:52:41.149Z,81504.00
2022-08-20T11:53:40.299Z,77408.00
2022-08-20T11:54:40.450Z,78592.00
2022-08-20T11:55:40.549Z,51552.00
2022-08-20T11:56:40.794Z,74336.00
2022-08-20T11:57:41.847Z,69088.00
2022-08-20T11:58:40.978Z,78976.00
2022-08-20T11:59:41.134Z,76160.00
2022-08-20T12:00:41.268Z,27424.00
2022-08-20T12:01:41.506Z,37504.00
2022-08-20T12:02:42.623Z,11864.00
2022-08-20T12:03:41.693Z,8712.00
2022-08-20T12:04:41.838Z,9716.00
2022-08-20T12:05:41.999Z,21248.00
2022-08-20T12:06:42.185Z,20960.00
2022-08-20T12:07:42.418Z,57632.00
2022-08-20T12:08:42.349Z,67968.00
2022-08-20T12:09:50.436Z,20384.00
2022-08-20T12:10:43.638Z,11896.00
2022-08-20T12:11:42.732Z,27808.00
2022-08-20T12:12:42.978Z,38432.00
2022-08-20T12:13:48.906Z,47840.00
2022-08-20T12:14:44.098Z,73248.00
2022-08-20T12:15:43.198Z,10276.00
2022-08-20T12:16:43.324Z,87712.00
2022-08-20T12:17:43.645Z,77312.00
2022-08-20T12:18:43.528Z,38720.00
2022-08-20T12:19:43.677Z,87488.00
2022-08-20T12:20:43.838Z,90784.00
2022-08-20T12:21:43.999Z,94080.00
2022-08-20T12:22:44.185Z,90336.00
2022-08-20T12:23:44.285Z,75840.00
2022-08-20T12:24:44.267Z,60096.00
2022-08-20T12:25:44.397Z,59520.00